createdAt,value
2018-02-05T00:01:12.947Z,42.30
2018-02-05T00:03:40.549Z,38.42
2018-02-05T00:06:08.186Z,39.80
2018-02-05T00:08:35.819Z,46.67
2018-02-05T00:11:04.191Z,40.03
2018-02-05T00:13:31.785Z,41.90
2018-02-05T00:16:00.137Z,39.83
2018-02-05T00:18:27.734Z,43.60
2018-02-05T00:20:55.328Z,40.60
2018-02-05T00:23:22.922Z,39.63
2018-02-05T00:25:50.514Z,43.03
2018-02-05T00:28:18.874Z,47.20
2018-02-05T00:30:46.476Z,56.85
2018-02-05T00:33:14.074Z,50.28
2018-02-05T00:35:41.733Z,48.90
2018-02-05T00:38:09.346Z,46.70
2018-02-05T00:40:36.950Z,45.72
2018-02-05T00:43:04.582Z,50.08
2018-02-05T00:45:32.947Z,50.45
2018-02-05T00:48:00.555Z,45.67
2018-02-05T00:50:28.155Z,54.25
2018-02-05T00:52:55.754Z,43.47
2018-02-05T00:55:23.360Z,49.33
2018-02-05T00:57:50.966Z,46.45
2018-02-05T01:00:18.580Z,48.75
2018-02-05T01:02:46.174Z,39.80
2018-02-05T01:05:13.779Z,42.78
2018-02-05T01:07:41.378Z,37.92
2018-02-05T01:10:08.974Z,38.78
2018-02-05T01:12:36.574Z,41.97
2018-02-05T01:15:04.196Z,37.08
2018-02-05T01:17:31.799Z,38.10
2018-02-05T01:19:59.398Z,34.88
2018-02-05T01:22:27.001Z,28.20
2018-02-05T01:24:54.607Z,27.60
2018-02-05T01:27:22.975Z,25.05
2018-02-05T01:29:50.610Z,24.92
2018-02-05T01:32:18.203Z,26.42
2018-02-05T01:34:45.799Z,27.25
2018-02-05T01:37:14.157Z,25.20
2018-02-05T01:39:41.754Z,24.20
2018-02-05T01:42:09.355Z,27.90
2018-02-05T01:44:36.950Z,30.88
2018-02-05T01:47:04.542Z,33.08
2018-02-05T01:49:32.904Z,33.42
2018-02-05T01:52:00.666Z,38.17
2018-02-05T01:54:28.315Z,42.58
2018-02-05T01:56:55.914Z,43.05
2018-02-05T01:59:26.218Z,48.92
2018-02-05T02:01:53.818Z,42.45
2018-02-05T02:04:21.410Z,49.08
2018-02-05T02:06:49.034Z,52.30
2018-02-05T02:09:17.445Z,40.00
2018-02-05T02:11:45.038Z,46.80
2018-02-05T02:14:12.674Z,42.85
2018-02-05T02:16:40.271Z,46.75
2018-02-05T02:19:07.870Z,57.80
2018-02-05T02:21:35.467Z,49.53
2018-02-05T02:24:03.071Z,46.63
2018-02-05T02:26:30.690Z,55.25
2018-02-05T02:28:58.286Z,60.50
2018-02-05T02:31:25.914Z,54.00
2018-02-05T02:33:54.287Z,74.93
2018-02-05T02:36:22.644Z,63.10
2018-02-05T02:38:50.258Z,60.80
2018-02-05T02:41:17.862Z,58.10
2018-02-05T02:43:45.453Z,65.87
2018-02-05T02:46:13.098Z,65.07
2018-02-05T02:48:40.695Z,64.80
2018-02-05T02:51:09.098Z,66.70
2018-02-05T02:53:36.690Z,64.47
2018-02-05T02:56:04.303Z,65.72
2018-02-05T02:58:32.666Z,61.72
2018-02-05T03:01:00.263Z,74.90
2018-02-05T03:03:28.632Z,74.50
2018-02-05T03:05:56.223Z,67.90
2018-02-05T03:08:23.866Z,85.40
2018-02-05T03:10:52.266Z,72.72
2018-02-05T03:13:20.626Z,69.22
2018-02-05T03:15:48.221Z,77.75
2018-02-05T03:18:15.815Z,66.12
2018-02-05T03:20:43.423Z,74.18
2018-02-05T03:23:11.038Z,70.80
2018-02-05T03:25:38.639Z,65.10
2018-02-05T03:28:06.269Z,71.90
2018-02-05T03:30:33.871Z,79.40
2018-02-05T03:33:01.467Z,74.53
2018-02-05T03:35:29.825Z,71.20
2018-02-05T03:37:57.426Z,65.68
2018-02-05T03:40:25.030Z,72.72
2018-02-05T03:42:52.618Z,77.85
2018-02-05T03:45:20.323Z,76.87
2018-02-05T03:47:47.914Z,65.07
2018-02-05T03:50:15.558Z,68.72
2018-02-05T03:52:43.155Z,76.75
2018-02-05T03:55:10.756Z,67.15
2018-02-05T03:57:38.396Z,65.60
2018-02-05T04:00:06.035Z,69.37
2018-02-05T04:02:33.622Z,61.95
2018-02-05T04:05:01.219Z,63.45
2018-02-05T04:07:29.584Z,59.05
2018-02-05T04:09:57.186Z,66.85
2018-02-05T04:12:24.902Z,71.82
2018-02-05T04:14:52.497Z,58.58
2018-02-05T04:17:20.887Z,62.80
2018-02-05T04:19:49.242Z,66.72
2018-02-05T04:22:16.874Z,61.97
2018-02-05T04:24:44.510Z,62.10
2018-02-05T04:27:12.870Z,68.40
2018-02-05T04:29:40.514Z,62.65
2018-02-05T04:32:08.118Z,58.67
2018-02-05T04:34:36.483Z,58.03
2018-02-05T04:37:04.082Z,62.58
2018-02-05T04:39:31.679Z,59.33
2018-02-05T04:41:59.271Z,57.47
2018-02-05T04:44:26.866Z,56.75
2018-02-05T04:46:55.225Z,54.63
2018-02-05T04:49:22.819Z,59.30
2018-02-05T04:51:50.419Z,55.78
2018-02-05T04:54:18.018Z,51.37
2018-02-05T04:56:45.655Z,54.45
2018-02-05T04:59:13.242Z,52.62
2018-02-05T05:01:40.838Z,59.95
2018-02-05T05:04:09.202Z,65.45
2018-02-05T05:06:36.839Z,56.65
2018-02-05T05:09:04.482Z,71.43
2018-02-05T05:11:32.078Z,68.20
2018-02-05T05:13:59.670Z,71.32
2018-02-05T05:16:28.027Z,66.28
2018-02-05T05:18:55.623Z,74.28
2018-02-05T05:21:24.036Z,72.22
2018-02-05T05:23:51.681Z,77.05
2018-02-05T05:26:20.034Z,94.28
2018-02-05T05:28:47.634Z,81.15
2018-02-05T05:31:15.226Z,81.87
2018-02-05T05:33:42.828Z,82.37
2018-02-05T05:36:10.466Z,86.45
2018-02-05T05:38:38.106Z,88.78
2018-02-05T05:41:05.754Z,77.57
2018-02-05T05:43:34.115Z,88.95
2018-02-05T05:46:02.481Z,93.97
2018-02-05T05:48:30.085Z,82.72
2018-02-05T05:50:57.678Z,89.05
2018-02-05T05:53:25.282Z,98.25
2018-02-05T05:55:52.882Z,85.60
2018-02-05T05:58:20.471Z,84.85
2018-02-05T06:00:48.062Z,89.15
2018-02-05T06:03:15.662Z,94.57
2018-02-05T06:05:44.022Z,93.85
2018-02-05T06:08:11.624Z,98.07
2018-02-05T06:10:39.223Z,85.47
2018-02-05T06:13:06.872Z,92.05
2018-02-05T06:15:34.485Z,85.12
2018-02-05T06:18:02.082Z,82.53
2018-02-05T06:20:29.678Z,74.35
2018-02-05T06:22:57.280Z,80.28
2018-02-05T06:25:24.882Z,86.55
2018-02-05T06:27:52.478Z,82.32
2018-02-05T06:30:20.075Z,70.12
2018-02-05T06:32:47.670Z,78.43
2018-02-05T06:35:16.043Z,72.57
2018-02-05T06:37:44.410Z,77.35
2018-02-05T06:40:12.002Z,79.70
2018-02-05T06:42:39.605Z,82.22
2018-02-05T06:45:07.203Z,72.78
2018-02-05T06:47:34.803Z,78.35
2018-02-05T06:50:02.406Z,66.82
2018-02-05T06:52:41.668Z,68.15
2018-02-05T06:55:21.141Z,61.70
2018-02-05T06:57:48.731Z,75.55
2018-02-05T07:00:16.681Z,68.50
2018-02-05T07:02:44.291Z,72.50
2018-02-05T07:05:11.896Z,63.20
2018-02-05T07:07:40.264Z,67.30
2018-02-05T07:10:08.650Z,60.83
2018-02-05T07:12:37.006Z,62.97
2018-02-05T07:15:04.607Z,69.50
2018-02-05T07:17:32.968Z,62.28
2018-02-05T07:20:00.590Z,67.10
2018-02-05T07:22:28.181Z,71.20
2018-02-05T07:24:55.774Z,57.30
2018-02-05T07:27:24.134Z,73.90
2018-02-05T07:29:51.736Z,77.00
2018-02-05T07:32:19.326Z,73.47
2018-02-05T07:34:46.944Z,78.00
2018-02-05T07:37:15.313Z,95.53
2018-02-05T07:39:42.917Z,104.22
2018-02-05T07:42:10.526Z,84.30
2018-02-05T07:44:38.148Z,107.40
2018-02-05T07:47:05.748Z,131.57
2018-02-05T07:49:33.342Z,143.85
2018-02-05T07:52:00.936Z,89.13
2018-02-05T07:54:29.295Z,79.55
2018-02-05T07:56:56.895Z,75.80
2018-02-05T07:59:24.524Z,70.62
2018-02-05T08:01:52.190Z,63.80
2018-02-05T08:04:20.574Z,66.47
2018-02-05T08:06:48.178Z,65.82
2018-02-05T08:09:16.711Z,66.47
2018-02-05T08:11:45.111Z,60.40
2018-02-05T08:14:12.714Z,59.42
2018-02-05T08:16:40.315Z,64.93
2018-02-05T08:19:07.915Z,66.20
2018-02-05T08:21:36.275Z,55.25
2018-02-05T08:24:03.867Z,58.25
2018-02-05T08:26:32.228Z,54.83
2018-02-05T08:28:59.824Z,57.08
2018-02-05T08:31:27.427Z,57.60
2018-02-05T08:33:55.027Z,55.72
2018-02-05T08:36:22.626Z,58.72
2018-02-05T08:38:50.282Z,61.60
2018-02-05T08:41:18.638Z,59.17
2018-02-05T08:43:46.234Z,55.50
2018-02-05T08:46:13.871Z,58.08
2018-02-05T08:48:41.461Z,61.72
2018-02-05T08:51:09.827Z,58.03
2018-02-05T08:53:38.206Z,77.80
2018-02-05T08:56:05.810Z,61.42
2018-02-05T08:58:33.414Z,66.07
2018-02-05T09:01:01.015Z,60.92
2018-02-05T09:03:29.378Z,62.45
2018-02-05T09:05:56.987Z,55.80
2018-02-05T09:08:24.591Z,58.75
2018-02-05T09:10:52.192Z,58.25
2018-02-05T09:13:20.783Z,61.47
2018-02-05T09:15:49.147Z,69.35
2018-02-05T09:18:16.752Z,73.00
2018-02-05T09:20:44.395Z,66.00
2018-02-05T09:23:12.767Z,62.28
2018-02-05T09:25:41.127Z,58.50
2018-02-05T09:28:08.723Z,54.35
2018-02-05T09:30:37.083Z,57.65
2018-02-05T09:33:04.695Z,55.00
2018-02-05T09:35:32.282Z,48.92
2018-02-05T09:37:59.865Z,49.97
2018-02-05T09:40:27.471Z,58.17
2018-02-05T09:42:55.830Z,56.40
2018-02-05T09:45:23.418Z,55.70
2018-02-05T09:47:51.774Z,53.65
2018-02-05T09:50:19.371Z,45.90
2018-02-05T09:52:46.976Z,58.13
2018-02-05T09:55:14.566Z,49.75
2018-02-05T09:57:42.214Z,53.63
2018-02-05T10:00:09.803Z,52.50
2018-02-05T10:02:37.395Z,51.58
2018-02-05T10:05:04.987Z,52.22
2018-02-05T10:07:32.581Z,66.30
2018-02-05T10:10:00.170Z,48.83
2018-02-05T10:12:27.791Z,47.75
2018-02-05T10:14:55.387Z,43.60
2018-02-05T10:17:24.517Z,51.45
2018-02-05T10:19:52.874Z,49.67
2018-02-05T10:22:21.455Z,50.55
2018-02-05T10:24:53.002Z,48.30
2018-02-05T10:27:30.586Z,43.22
2018-02-05T10:29:58.715Z,46.22
2018-02-05T10:32:26.304Z,45.90
2018-02-05T10:34:53.923Z,47.58
2018-02-05T10:37:21.544Z,52.60
2018-02-05T10:39:49.139Z,51.63
2018-02-05T10:42:16.735Z,50.50
2018-02-05T10:44:45.122Z,45.25
2018-02-05T10:47:13.471Z,47.40
2018-02-05T10:49:41.091Z,56.25
2018-02-05T10:52:08.691Z,44.92
2018-02-05T10:54:36.277Z,39.47
2018-02-05T10:57:04.638Z,45.03
2018-02-05T10:59:32.227Z,39.40
2018-02-05T11:02:00.586Z,56.58
2018-02-05T11:04:30.194Z,44.13
2018-02-05T11:06:57.790Z,39.72
2018-02-05T11:09:26.197Z,52.40
2018-02-05T11:11:53.803Z,47.00
2018-02-05T11:14:21.438Z,52.88
2018-02-05T11:16:49.022Z,43.70
2018-02-05T11:19:16.618Z,47.47
2018-02-05T11:21:44.211Z,46.92
2018-02-05T11:24:12.640Z,50.25
2018-02-05T11:26:40.230Z,43.08
2018-02-05T11:29:07.824Z,40.80
2018-02-05T11:31:36.181Z,50.95
2018-02-05T11:34:03.812Z,35.28
2018-02-05T11:36:31.507Z,35.17
2018-02-05T11:39:00.018Z,43.90
2018-02-05T11:41:27.644Z,31.95
2018-02-05T11:43:55.243Z,32.00
2018-02-05T11:46:23.606Z,36.20
2018-02-05T11:48:51.232Z,24.83
2018-02-05T11:51:18.843Z,29.40
2018-02-05T11:53:46.446Z,29.92
2018-02-05T11:56:14.072Z,26.87
2018-02-05T11:58:41.679Z,21.85
2018-02-05T12:01:09.284Z,25.12
2018-02-05T12:03:36.916Z,29.08
2018-02-05T12:06:06.580Z,25.58
2018-02-05T12:08:34.198Z,20.12
2018-02-05T12:11:01.807Z,26.08
2018-02-05T12:13:29.587Z,25.98
2018-02-05T12:15:57.182Z,21.77
2018-02-05T12:18:24.814Z,30.15
2018-02-05T12:20:52.412Z,25.60
2018-02-05T12:23:20.012Z,20.95
2018-02-05T12:25:47.599Z,21.33
2018-02-05T12:28:15.222Z,26.87
2018-02-05T12:30:42.823Z,26.92
2018-02-05T12:33:10.425Z,30.10
2018-02-05T12:35:38.841Z,28.95
2018-02-05T12:38:06.455Z,31.05
2018-02-05T12:40:34.074Z,35.88
2018-02-05T12:43:01.679Z,37.10
2018-02-05T12:45:29.286Z,28.20
2018-02-05T12:47:56.883Z,26.90
2018-02-05T12:50:24.474Z,27.75
2018-02-05T12:52:52.109Z,31.65
2018-02-05T12:55:19.714Z,28.33
2018-02-05T12:57:48.121Z,26.85
2018-02-05T13:00:36.408Z,32.47
2018-02-05T13:03:04.962Z,25.52
2018-02-05T13:05:32.579Z,29.98
2018-02-05T13:08:00.179Z,34.00
2018-02-05T13:10:27.771Z,28.20
2018-02-05T13:12:55.366Z,29.70
2018-02-05T13:15:22.963Z,25.92
2018-02-05T13:17:51.331Z,29.75
2018-02-05T13:20:18.942Z,30.23
2018-02-05T13:22:46.533Z,28.87
2018-02-05T13:25:14.200Z,29.40
2018-02-05T13:27:41.796Z,31.27
2018-02-05T13:30:10.159Z,29.67
2018-02-05T13:32:37.802Z,20.95
2018-02-05T13:35:05.394Z,26.10
2018-02-05T13:37:32.986Z,23.75
2018-02-05T13:40:01.339Z,27.45
2018-02-05T13:42:28.943Z,23.73
2018-02-05T13:44:56.542Z,26.52
2018-02-05T13:47:24.171Z,29.42
2018-02-05T13:49:51.779Z,26.02
2018-02-05T13:52:19.374Z,32.55
2018-02-05T13:54:46.995Z,31.90
2018-02-05T13:57:14.628Z,25.62
2018-02-05T13:59:42.232Z,31.15
2018-02-05T14:02:09.831Z,28.45
2018-02-05T14:04:37.436Z,37.25
2018-02-05T14:07:05.061Z,60.78
2018-02-05T14:09:33.628Z,26.92
2018-02-05T14:12:02.181Z,58.28
2018-02-05T14:14:29.818Z,29.27
2018-02-05T14:16:58.195Z,41.10
2018-02-05T14:19:26.591Z,31.87
2018-02-05T14:21:54.965Z,30.58
2018-02-05T14:24:22.571Z,34.97
2018-02-05T14:26:50.237Z,32.22
2018-02-05T14:29:17.835Z,36.35
2018-02-05T14:31:45.452Z,28.08
2018-02-05T14:34:13.074Z,32.28
2018-02-05T14:36:40.690Z,35.25
2018-02-05T14:39:08.300Z,34.17
2018-02-05T14:41:35.923Z,32.60
2018-02-05T14:44:03.587Z,28.35
2018-02-05T14:46:31.187Z,28.20
2018-02-05T14:48:59.685Z,24.75
2018-02-05T14:51:27.312Z,27.10
2018-02-05T14:53:54.923Z,19.92
2018-02-05T14:56:22.523Z,17.98
2018-02-05T14:58:50.145Z,15.27
2018-02-05T15:01:18.807Z,19.12
2018-02-05T15:03:46.411Z,18.17
2018-02-05T15:06:14.015Z,14.98
2018-02-05T15:08:41.617Z,12.85
2018-02-05T15:11:09.220Z,14.45
2018-02-05T15:13:37.579Z,17.05
2018-02-05T15:16:05.175Z,17.48
2018-02-05T15:18:33.538Z,18.90
2018-02-05T15:21:01.141Z,17.73
2018-02-05T15:23:28.799Z,16.37
2018-02-05T15:25:56.404Z,14.45
2018-02-05T15:28:23.999Z,22.55
2018-02-05T15:30:51.616Z,17.67
2018-02-05T15:33:19.222Z,19.58
2018-02-05T15:35:46.830Z,22.70
2018-02-05T15:38:14.449Z,22.10
2018-02-05T15:40:42.052Z,20.02
2018-02-05T15:43:09.646Z,17.62
2018-02-05T15:45:37.245Z,17.12
2018-02-05T15:48:04.868Z,16.10
2018-02-05T15:50:32.460Z,16.00
2018-02-05T15:53:00.083Z,18.12
2018-02-05T15:55:27.687Z,14.50
2018-02-05T15:57:55.305Z,18.00
2018-02-05T16:00:22.916Z,17.52
2018-02-05T16:02:50.519Z,17.25
2018-02-05T16:05:18.889Z,15.60
2018-02-05T16:07:46.492Z,13.30
2018-02-05T16:10:14.102Z,17.85
2018-02-05T16:12:41.706Z,13.45
2018-02-05T16:15:09.311Z,15.32
2018-02-05T16:17:36.921Z,16.17
2018-02-05T16:20:04.528Z,19.05
2018-02-05T16:22:32.127Z,15.18
2018-02-05T16:24:59.728Z,17.83
2018-02-05T16:27:28.106Z,15.50
2018-02-05T16:29:56.491Z,20.17
2018-02-05T16:32:24.877Z,16.27
2018-02-05T16:34:52.488Z,15.98
2018-02-05T16:37:20.081Z,15.88
2018-02-05T16:39:47.736Z,18.55
2018-02-05T16:42:15.354Z,21.27
2018-02-05T16:44:42.965Z,18.70
2018-02-05T16:47:10.606Z,27.85
2018-02-05T16:49:38.220Z,25.92
2018-02-05T16:52:06.602Z,19.83
2018-02-05T16:54:34.967Z,20.10
2018-02-05T16:57:02.567Z,12.32
2018-02-05T16:59:31.024Z,12.18
2018-02-05T17:01:58.640Z,15.55
2018-02-05T17:04:26.283Z,9.00
2018-02-05T17:06:54.657Z,14.48
2018-02-05T17:09:23.024Z,15.88
2018-02-05T17:11:50.724Z,13.10
2018-02-05T17:14:18.988Z,16.33
2018-02-05T17:16:47.373Z,17.30
2018-02-05T17:19:14.976Z,13.18
2018-02-05T17:21:42.584Z,13.45
2018-02-05T17:24:10.239Z,14.15
2018-02-05T17:26:37.892Z,12.95
2018-02-05T17:29:05.510Z,17.35
2018-02-05T17:31:33.119Z,23.60
2018-02-05T17:34:00.731Z,42.17
2018-02-05T17:36:29.103Z,26.87
2018-02-05T17:38:56.730Z,27.70
2018-02-05T17:41:24.347Z,46.70
2018-02-05T17:43:52.757Z,44.15
2018-02-05T17:46:20.380Z,32.30
2018-02-05T17:48:48.805Z,33.85
2018-02-05T17:51:16.408Z,16.62
2018-02-05T17:53:44.020Z,20.62
2018-02-05T17:56:11.641Z,21.55
2018-02-05T17:58:39.253Z,14.82
2018-02-05T18:01:06.862Z,21.35
2018-02-05T18:03:34.481Z,18.60
2018-02-05T18:06:02.145Z,21.60
2018-02-05T18:08:29.752Z,21.52
2018-02-05T18:10:57.431Z,18.10
2018-02-05T18:13:25.053Z,15.07
2018-02-05T18:15:52.662Z,12.90
2018-02-05T18:18:20.279Z,14.65
2018-02-05T18:20:47.908Z,10.60
2018-02-05T18:23:15.514Z,12.73
2018-02-05T18:25:43.175Z,13.18
2018-02-05T18:28:10.784Z,10.75
2018-02-05T18:30:38.404Z,13.62
2018-02-05T18:33:06.022Z,9.27
2018-02-05T18:35:33.680Z,14.20
2018-02-05T18:38:01.331Z,13.65
2018-02-05T18:40:28.979Z,15.23
2018-02-05T18:42:56.619Z,13.30
2018-02-05T18:45:24.215Z,16.10
2018-02-05T18:47:51.802Z,17.83
2018-02-05T18:50:19.407Z,12.85
2018-02-05T18:52:46.998Z,18.12
2018-02-05T18:55:14.591Z,14.27
2018-02-05T18:57:42.198Z,13.52
2018-02-05T19:00:21.538Z,24.42
2018-02-05T19:02:49.890Z,21.12
2018-02-05T19:05:17.494Z,22.17
2018-02-05T19:07:45.850Z,26.52
2018-02-05T19:10:13.442Z,17.05
2018-02-05T19:12:41.827Z,22.55
2018-02-05T19:15:09.423Z,22.37
2018-02-05T19:17:37.023Z,29.80
2018-02-05T19:20:04.627Z,29.37
2018-02-05T19:22:32.219Z,35.55
2018-02-05T19:24:59.819Z,32.65
2018-02-05T19:27:27.402Z,25.67
2018-02-05T19:29:55.005Z,23.62
2018-02-05T19:32:22.629Z,26.37
2018-02-05T19:34:52.230Z,30.17
2018-02-05T19:37:19.818Z,28.92
2018-02-05T19:39:48.301Z,34.70
2018-02-05T19:42:16.667Z,26.62
2018-02-05T19:44:44.267Z,34.08
2018-02-05T19:47:11.871Z,27.83
2018-02-05T19:49:39.462Z,38.80
2018-02-05T19:52:07.053Z,31.80
2018-02-05T19:54:35.466Z,29.37
2018-02-05T19:57:03.072Z,31.30
2018-02-05T19:59:30.711Z,32.33
2018-02-05T20:01:58.308Z,31.35
2018-02-05T20:04:25.910Z,33.25
2018-02-05T20:06:53.510Z,29.30
2018-02-05T20:09:21.138Z,32.13
2018-02-05T20:11:48.752Z,31.20
2018-02-05T20:14:16.381Z,35.25
2018-02-05T20:16:44.014Z,30.77
2018-02-05T20:19:12.459Z,31.73
2018-02-05T20:21:40.067Z,30.83
2018-02-05T20:24:08.471Z,28.42
2018-02-05T20:26:36.085Z,32.22
2018-02-05T20:29:03.732Z,30.25
2018-02-05T20:31:31.347Z,26.98
2018-02-05T20:33:58.949Z,29.17
2018-02-05T20:36:26.575Z,29.60
2018-02-05T20:38:54.941Z,30.42
2018-02-05T20:41:22.556Z,30.30
2018-02-05T20:43:50.176Z,31.50
2018-02-05T20:46:17.796Z,31.12
2018-02-05T20:48:45.415Z,34.30
2018-02-05T20:51:13.783Z,29.30
2018-02-05T20:53:41.383Z,31.70
2018-02-05T20:56:08.983Z,29.60
2018-02-05T20:58:36.583Z,26.60
2018-02-05T21:01:04.186Z,31.85
2018-02-05T21:03:31.783Z,30.98
2018-02-05T21:05:59.383Z,35.78
2018-02-05T21:08:30.818Z,31.55
2018-02-05T21:10:58.417Z,30.00
2018-02-05T21:13:26.782Z,32.13
2018-02-05T21:15:55.154Z,33.55
2018-02-05T21:18:22.750Z,32.05
2018-02-05T21:20:51.121Z,31.33
2018-02-05T21:23:18.752Z,33.13
2018-02-05T21:25:46.410Z,25.65
2018-02-05T21:28:14.012Z,32.88
2018-02-05T21:30:42.374Z,30.52
2018-02-05T21:33:09.983Z,27.40
2018-02-05T21:35:37.582Z,30.00
2018-02-05T21:38:05.184Z,33.83
2018-02-05T21:40:32.795Z,33.60
2018-02-05T21:43:00.403Z,33.58
2018-02-05T21:45:28.011Z,31.77
2018-02-05T21:47:55.623Z,30.42
2018-02-05T21:50:23.215Z,28.00
2018-02-05T21:52:51.578Z,33.30
2018-02-05T21:55:19.219Z,26.08
2018-02-05T21:57:46.816Z,26.70
2018-02-05T22:00:15.415Z,28.55
2018-02-05T22:02:43.019Z,33.67
2018-02-05T22:05:10.633Z,34.05
2018-02-05T22:07:38.238Z,30.33
2018-02-05T22:10:05.863Z,31.95
2018-02-05T22:12:33.464Z,29.45
2018-02-05T22:15:01.092Z,28.02
2018-02-05T22:17:28.731Z,25.25
2018-02-05T22:19:56.336Z,35.55
2018-02-05T22:22:23.933Z,24.35
2018-02-05T22:24:51.534Z,29.60
2018-02-05T22:27:19.138Z,25.30
2018-02-05T22:29:46.755Z,27.37
2018-02-05T22:32:14.351Z,34.70
2018-02-05T22:34:41.967Z,30.20
2018-02-05T22:37:09.554Z,25.30
2018-02-05T22:39:37.147Z,26.55
2018-02-05T22:42:04.743Z,31.15
2018-02-05T22:44:33.095Z,34.72
2018-02-05T22:47:00.686Z,29.45
2018-02-05T22:49:29.085Z,32.05
2018-02-05T22:51:56.680Z,30.98
2018-02-05T22:54:24.274Z,31.08
2018-02-05T22:56:51.879Z,30.25
2018-02-05T22:59:19.470Z,29.73
2018-02-05T23:01:47.071Z,33.50
2018-02-05T23:04:14.664Z,32.33
2018-02-05T23:06:42.277Z,31.58
2018-02-05T23:09:09.874Z,32.22
2018-02-05T23:11:37.478Z,31.55
2018-02-05T23:14:05.110Z,31.73
2018-02-05T23:16:33.519Z,37.95
2018-02-05T23:19:01.194Z,31.95
2018-02-05T23:21:28.791Z,38.42
2018-02-05T23:23:56.391Z,39.53
2018-02-05T23:26:24.758Z,33.58
2018-02-05T23:28:52.356Z,34.78
2018-02-05T23:31:19.955Z,34.20
2018-02-05T23:33:47.572Z,36.05
2018-02-05T23:36:15.927Z,33.70
2018-02-05T23:38:43.523Z,38.50
2018-02-05T23:41:11.883Z,36.22
2018-02-05T23:43:39.479Z,36.38
2018-02-05T23:46:07.083Z,32.70
2018-02-05T23:48:34.675Z,38.28
2018-02-05T23:51:02.275Z,33.47
2018-02-05T23:53:29.871Z,38.28
2018-02-05T23:55:57.479Z,43.78
2018-02-05T23:58:25.075Z,39.63
